Time;durP1;ratioP1;P1;durP2;ratioP2;P2;SDS_P1;SDS_P2;PMS_P1;PMS_P2;Temp;Humidity;BMP_temperature;BMP_pressure;BME280_temperature;BME280_humidity;BME280_pressure;Samples;Min_cycle;Max_cycle;Signal;HPM_P1;HPM_P2
2022/01/20 00:02:22;;;;;;;17.55;3.00;;;;;;;4.40;100.00;102340.75;5077184;28;20081;-57
2022/01/20 00:04:52;;;;;;;10.05;3.22;;;;;;;4.32;100.00;102326.72;5092362;28;20074;-53
2022/01/20 00:07:33;;;;;;;13.98;2.40;;;;;;;4.79;100.00;102414.41;5076397;28;20033;-53
2022/01/20 00:26:26;;;;;;;23.00;4.60;;;;;;;5.00;100.00;102433.03;5093049;28;20055;-57
2022/01/20 00:28:56;;;;;;;19.40;3.67;;;;;;;4.46;100.00;102335.66;5091719;28;20471;-57
2022/01/20 00:33:55;;;;;;;17.65;3.05;;;;;;;5.10;100.00;102437.56;5093225;28;20052;-56
2022/01/20 00:39:03;;;;;;;20.52;2.78;;;;;;;5.20;100.00;102464.66;5093023;28;20035;-56
2022/01/20 00:41:28;;;;;;;17.08;3.03;;;;;;;5.09;100.00;102456.66;5092723;28;20047;-55
2022/01/20 00:43:53;;;;;;;14.75;3.53;;;;;;;5.16;100.00;102451.53;5091337;28;20051;-56
2022/01/20 00:46:18;;;;;;;18.80;3.17;;;;;;;4.79;100.00;102382.22;5074731;28;20038;-55
2022/01/20 00:48:44;;;;;;;17.30;3.33;;;;;;;5.30;100.00;102463.94;5092759;28;20039;-54
2022/01/20 00:51:09;;;;;;;23.50;3.35;;;;;;;5.28;100.00;102449.13;5092747;28;20028;-54
2022/01/20 00:53:35;;;;;;;15.88;2.72;;;;;;;4.93;100.00;102410.28;5074609;28;20077;-55
2022/01/20 00:56:00;;;;;;;12.15;2.17;;;;;;;5.15;100.00;102461.09;5092300;28;20039;-55
2022/01/20 00:58:26;;;;;;;17.58;3.22;;;;;;;4.97;100.00;102439.94;5092670;28;20024;-55
2022/01/20 01:00:51;;;;;;;14.05;2.42;;;;;;;4.88;100.00;102450.22;5092553;28;20063;-57
2022/01/20 01:03:17;;;;;;;13.13;2.65;;;;;;;4.76;100.00;102447.44;5058021;28;20040;-58
2022/01/20 01:06:01;;;;;;;18.13;3.17;;;;;;;4.45;100.00;102409.50;5092691;28;20040;-57
2022/01/20 01:08:26;;;;;;;19.83;3.20;;;;;;;4.59;100.00;102427.97;5092579;28;20422;-51
2022/01/20 01:10:52;;;;;;;18.73;3.35;;;;;;;4.58;100.00;102440.16;5092524;28;20032;-56
2022/01/20 01:13:18;;;;;;;24.65;3.45;;;;;;;4.13;100.00;102358.50;5092644;28;20067;-55
2022/01/20 01:15:47;;;;;;;25.83;4.32;;;;;;;4.54;100.00;102420.97;5074504;28;20483;-55
2022/01/20 01:23:38;;;;;;;15.02;2.92;;;;;;;4.80;100.00;102434.44;5082375;28;20044;-54
2022/01/20 01:26:16;;;;;;;9.05;2.35;;;;;;;4.83;100.00;102446.66;5072287;28;20103;-54
2022/01/20 01:28:42;;;;;;;7.88;1.40;;;;;;;4.38;100.00;102377.22;5072073;28;20029;-58
2022/01/20 01:31:31;;;;;;;7.78;1.40;;;;;;;4.89;100.00;102475.47;5071990;28;20089;-54
2022/01/20 01:34:00;;;;;;;5.30;1.23;;;;;;;4.93;100.00;102474.66;5057277;28;20078;-57
2022/01/20 01:36:28;;;;;;;9.52;1.52;;;;;;;4.91;100.00;102453.75;5088848;28;20474;-56
2022/01/20 01:38:54;;;;;;;7.85;1.60;;;;;;;4.85;100.00;102465.81;5092130;28;20111;-53
2022/01/20 01:41:34;;;;;;;5.82;1.15;;;;;;;4.78;100.00;102461.38;5092116;28;20178;-59
2022/01/20 01:44:04;;;;;;;9.27;2.30;;;;;;;4.71;100.00;102476.03;5075922;28;20066;-55
2022/01/20 01:46:29;;;;;;;15.40;2.13;;;;;;;4.70;100.00;102476.00;5074836;28;20034;-57
2022/01/20 01:48:56;;;;;;;11.52;2.08;;;;;;;4.76;100.00;102471.75;5091824;28;20106;-56
2022/01/20 01:51:22;;;;;;;17.73;3.45;;;;;;;4.82;100.00;102479.69;5092186;28;20025;-54
2022/01/20 01:53:47;;;;;;;16.95;2.95;;;;;;;4.73;100.00;102461.25;5092072;28;20088;-57
2022/01/20 01:56:13;;;;;;;22.10;3.75;;;;;;;4.29;100.00;102395.28;5073798;28;20174;-55
2022/01/20 01:58:38;;;;;;;18.65;3.75;;;;;;;4.82;100.00;102473.59;5092381;28;20040;-57
2022/01/20 02:01:03;;;;;;;22.75;4.07;;;;;;;4.87;100.00;102490.22;5073733;28;20051;-58
2022/01/20 02:03:31;;;;;;;20.73;4.32;;;;;;;4.84;100.00;102472.78;5092014;28;20124;-56
2022/01/20 02:06:16;;;;;;;20.00;3.70;;;;;;;5.01;100.00;102494.81;5074186;28;20024;-57
2022/01/20 02:08:55;;;;;;;21.85;4.13;;;;;;;5.04;100.00;102484.44;5091988;28;20024;-57
2022/01/20 02:19:34;;;;;;;18.83;4.15;;;;;;;4.95;100.00;102484.28;5075475;28;20498;-56
2022/01/20 02:22:02;;;;;;;21.60;3.97;;;;;;;4.60;100.00;102406.28;5057035;28;20037;-54
2022/01/20 02:24:29;;;;;;;29.88;4.22;;;;;;;4.97;100.00;102481.69;5057401;28;20480;-56
2022/01/20 02:26:55;;;;;;;23.10;4.55;;;;;;;4.94;100.00;102484.22;5074948;28;20060;-56
2022/01/20 02:29:20;;;;;;;21.33;4.13;;;;;;;4.97;100.00;102490.38;5057427;28;20507;-58
2022/01/20 02:31:46;;;;;;;21.30;3.83;;;;;;;5.00;100.00;102485.22;5075005;28;20036;-58
2022/01/20 02:34:12;;;;;;;20.45;3.50;;;;;;;4.97;100.00;102477.34;5074826;28;20030;-57
2022/01/20 02:36:41;;;;;;;20.20;3.55;;;;;;;4.92;100.00;102476.41;5057126;28;20055;-55
2022/01/20 02:44:54;;;;;;;19.00;3.92;;;;;;;4.64;100.00;102414.16;5059629;28;20040;-60
2022/01/20 02:47:23;;;;;;;18.90;4.00;;;;;;;5.08;100.00;102480.13;5057817;28;20114;-56
2022/01/20 02:49:49;;;;;;;26.63;5.25;;;;;;;5.17;100.00;102475.03;5074788;28;20028;-57
2022/01/20 02:52:15;;;;;;;24.08;4.20;;;;;;;5.27;100.00;102481.28;5074818;28;20391;-57
2022/01/20 02:54:41;;;;;;;25.80;4.45;;;;;;;4.86;100.00;102392.81;5075068;28;20040;-58
2022/01/20 02:57:07;;;;;;;22.08;4.78;;;;;;;5.35;100.00;102480.56;5074715;28;20044;-55
2022/01/20 02:59:36;;;;;;;22.95;4.18;;;;;;;5.22;100.00;102470.78;5074471;28;20077;-60
2022/01/20 03:02:03;;;;;;;11.50;2.80;;;;;;;5.22;100.00;102485.56;5074520;28;20021;-55
2022/01/20 03:04:30;;;;;;;19.08;3.15;;;;;;;5.14;100.00;102488.03;5056781;28;20032;-56
2022/01/20 03:06:55;;;;;;;15.23;3.17;;;;;;;5.10;100.00;102481.03;5073191;28;20395;-59
2022/01/20 03:09:21;;;;;;;20.52;3.95;;;;;;;4.61;100.00;102389.78;5073051;28;20036;-55
2022/01/20 03:11:47;;;;;;;15.10;3.42;;;;;;;5.13;100.00;102473.25;5074671;28;20039;-58
2022/01/20 03:14:14;;;;;;;15.95;3.58;;;;;;;5.17;100.00;102485.47;5056591;28;20105;-59
2022/01/20 03:16:40;;;;;;;18.00;4.63;;;;;;;5.20;100.00;102489.88;5056699;28;20039;-53
2022/01/20 03:19:05;;;;;;;16.80;3.88;;;;;;;4.63;100.00;102390.69;5074144;28;20036;-56
2022/01/20 03:21:31;;;;;;;14.55;3.10;;;;;;;5.12;100.00;102494.97;5074476;28;20025;-57
2022/01/20 03:23:56;;;;;;;19.95;3.40;;;;;;;4.99;100.00;102483.47;5073932;28;20140;-55
2022/01/20 03:26:21;;;;;;;19.02;3.05;;;;;;;4.95;100.00;102488.63;5073900;28;20028;-54
2022/01/20 03:28:47;;;;;;;18.42;3.40;;;;;;;4.40;100.00;102405.94;5073055;28;20473;-57
2022/01/20 03:31:12;;;;;;;23.35;3.03;;;;;;;4.37;100.00;102404.16;5074042;28;20103;-56
2022/01/20 03:33:37;;;;;;;12.98;2.75;;;;;;;4.80;100.00;102475.31;5055974;28;20039;-56
2022/01/20 03:36:03;;;;;;;11.60;2.38;;;;;;;4.31;100.00;102406.66;5073787;28;20166;-55
2022/01/20 03:38:28;;;;;;;15.43;2.63;;;;;;;4.66;100.00;102472.47;5073815;28;20035;-59
2022/01/20 03:40:54;;;;;;;16.23;3.10;;;;;;;4.63;100.00;102481.97;5039053;28;20036;-57
2022/01/20 03:43:19;;;;;;;15.05;2.28;;;;;;;4.72;100.00;102531.69;5073516;28;20047;-55
2022/01/20 03:45:49;;;;;;;12.55;1.98;;;;;;;4.62;100.00;102530.63;5055950;28;20115;-58
2022/01/20 03:48:15;;;;;;;9.37;2.13;;;;;;;4.49;100.00;102534.72;5073729;28;20402;-53
2022/01/20 03:53:24;;;;;;;6.80;1.50;;;;;;;4.23;100.00;102499.44;5073679;28;20047;-57
2022/01/20 03:55:49;;;;;;;12.38;1.60;;;;;;;4.29;100.00;102509.13;5073371;28;20041;-59
2022/01/20 03:58:15;;;;;;;3.03;0.98;;;;;;;4.12;100.00;102485.31;5073591;28;20036;-55
2022/01/20 04:00:41;;;;;;;10.25;1.65;;;;;;;3.77;100.00;102432.50;5073609;28;20072;-58
2022/01/20 04:03:06;;;;;;;9.25;1.17;;;;;;;4.20;100.00;102504.63;5055551;28;20039;-58
2022/01/20 04:05:32;;;;;;;8.48;2.08;;;;;;;3.69;100.00;102431.47;5073684;28;20033;-56
2022/01/20 04:07:57;;;;;;;12.00;2.00;;;;;;;3.75;100.00;102435.94;5055260;28;20036;-56
2022/01/20 04:10:22;;;;;;;13.48;1.50;;;;;;;4.11;100.00;102498.34;5073268;28;20036;-56
2022/01/20 04:12:48;;;;;;;8.57;1.40;;;;;;;4.06;100.00;102502.59;5073217;28;20517;-56
2022/01/20 04:15:16;;;;;;;8.25;1.63;;;;;;;4.00;100.00;102510.28;5073100;28;20029;-57
2022/01/20 04:17:44;;;;;;;11.45;2.05;;;;;;;3.76;100.00;102464.63;5055726;28;20093;-54
2022/01/20 04:20:09;;;;;;;12.93;2.20;;;;;;;3.83;100.00;102483.84;5072993;28;20025;-57
2022/01/20 04:22:35;;;;;;;14.20;2.40;;;;;;;4.03;100.00;102521.63;5072560;28;20030;-56
2022/01/20 04:25:01;;;;;;;9.25;2.03;;;;;;;4.11;100.00;102522.69;5054990;28;20059;-52
2022/01/20 04:27:26;;;;;;;11.55;1.83;;;;;;;4.16;100.00;102528.84;5055269;28;20029;-58
2022/01/20 04:29:52;;;;;;;14.93;2.47;;;;;;;4.11;100.00;102508.75;5055283;28;20071;-55
2022/01/20 04:32:17;;;;;;;16.13;2.45;;;;;;;4.07;100.00;102504.31;5054692;28;20039;-55
2022/01/20 04:34:44;;;;;;;16.40;2.55;;;;;;;3.73;100.00;102446.34;5072662;28;20031;-56
2022/01/20 04:37:09;;;;;;;12.75;2.25;;;;;;;4.21;100.00;102535.03;5054488;28;20032;-56
2022/01/20 04:39:41;;;;;;;15.63;2.95;;;;;;;4.27;100.00;102542.09;5072583;28;20537;-56
2022/01/20 04:42:07;;;;;;;12.38;2.58;;;;;;;4.34;100.00;102551.81;5055859;28;20091;-53
2022/01/20 04:44:40;;;;;;;15.10;2.35;;;;;;;4.39;100.00;102561.47;5076664;28;20514;-52
2022/01/20 04:47:22;;;;;;;13.85;2.80;;;;;;;4.02;100.00;102524.19;5072418;28;20032;-53
2022/01/20 04:57:59;;;;;;;21.25;4.25;;;;;;;3.76;100.00;102584.44;5072024;28;20059;-58
2022/01/20 05:00:24;;;;;;;21.35;4.65;;;;;;;3.42;100.00;102545.41;5054395;28;20036;-55
2022/01/20 05:02:50;;;;;;;27.63;5.40;;;;;;;3.04;100.00;102489.84;5071934;28;20032;-55
2022/01/20 05:05:15;;;;;;;23.88;4.57;;;;;;;3.54;100.00;102591.69;5072081;28;20102;-57
2022/01/20 05:07:41;;;;;;;24.83;5.43;;;;;;;3.01;100.00;102501.88;5071166;28;20040;-52
2022/01/20 05:10:10;;;;;;;24.67;5.22;;;;;;;3.39;100.00;102567.03;5072734;28;20032;-57
2022/01/20 05:13:24;;;;;;;32.80;5.10;;;;;;;3.48;100.00;102586.31;5071052;28;20028;-55
2022/01/20 05:15:23;;;;;;;26.60;5.25;;;;;;;3.51;100.00;102605.50;5061340;28;20507;-57
2022/01/20 05:17:49;;;;;;;27.08;5.50;;;;;;;3.05;100.00;102524.53;5054276;28;20128;-54
2022/01/20 05:20:15;;;;;;;29.90;5.18;;;;;;;3.08;100.00;102520.31;5072132;28;20103;-53
2022/01/20 05:22:40;;;;;;;24.48;5.30;;;;;;;3.60;100.00;102608.34;5053956;28;20503;-57
2022/01/20 05:25:06;;;;;;;32.20;5.53;;;;;;;3.55;100.00;102609.97;5071908;28;20082;-53
2022/01/20 05:27:32;;;;;;;34.47;5.75;;;;;;;3.57;100.00;102616.06;5072580;28;20031;-58
2022/01/20 05:29:57;;;;;;;25.67;4.57;;;;;;;3.40;100.00;102578.34;5072270;28;20455;-57
2022/01/20 05:32:23;;;;;;;22.70;4.50;;;;;;;3.21;100.00;102547.50;5054326;28;20487;-51
2022/01/20 05:34:49;;;;;;;23.08;4.03;;;;;;;3.72;100.00;102645.09;5070802;28;20036;-56
2022/01/20 05:37:14;;;;;;;25.98;4.15;;;;;;;3.82;100.00;102648.81;5071949;28;20070;-56
2022/01/20 05:39:40;;;;;;;21.13;4.20;;;;;;;3.38;100.00;102565.31;5071798;28;20028;-56
2022/01/20 05:42:07;;;;;;;20.27;4.40;;;;;;;3.95;100.00;102654.34;5072063;28;20074;-49
2022/01/20 05:44:32;;;;;;;14.05;3.28;;;;;;;3.68;100.00;102595.50;5072091;28;20033;-53
2022/01/20 05:46:58;;;;;;;11.38;2.28;;;;;;;4.04;100.00;102689.25;5071691;28;20043;-57
2022/01/20 05:49:23;;;;;;;17.15;3.45;;;;;;;3.88;100.00;102609.88;5071780;28;20036;-55
2022/01/20 05:51:52;;;;;;;18.33;3.50;;;;;;;4.31;100.00;102675.16;5072270;28;20078;-56
2022/01/20 05:54:18;;;;;;;14.57;2.92;;;;;;;3.49;100.00;102529.09;5075693;28;20032;-54
2022/01/20 05:56:43;;;;;;;18.40;3.22;;;;;;;4.39;100.00;102689.22;5075679;28;20487;-55
2022/01/20 05:59:08;;;;;;;18.77;3.88;;;;;;;4.07;100.00;102627.69;5075568;28;20033;-56
2022/01/20 06:01:37;;;;;;;21.20;4.05;;;;;;;4.45;100.00;102686.75;5075432;28;20468;-55
2022/01/20 06:04:02;;;;;;;22.17;4.15;;;;;;;4.37;100.00;102683.13;5075205;28;20150;-55
2022/01/20 06:06:28;;;;;;;20.17;3.80;;;;;;;4.07;100.00;102645.03;5075431;28;20044;-59
2022/01/20 06:08:53;;;;;;;14.05;3.15;;;;;;;4.29;100.00;102689.84;5075414;28;20029;-57
2022/01/20 06:11:19;;;;;;;13.95;3.22;;;;;;;4.34;100.00;102706.50;5075431;28;20098;-57
2022/01/20 06:13:44;;;;;;;9.70;2.92;;;;;;;3.87;100.00;102645.47;5057541;28;20502;-55
2022/01/20 06:16:10;;;;;;;23.05;3.30;;;;;;;4.13;100.00;102682.56;5074922;28;20035;-60
2022/01/20 06:18:35;;;;;;;17.55;3.30;;;;;;;4.18;100.00;102700.88;5073305;28;20430;-55
2022/01/20 06:21:01;;;;;;;17.27;2.70;;;;;;;4.03;100.00;102688.38;5074124;28;20388;-53
2022/01/20 06:23:27;;;;;;;11.82;2.28;;;;;;;4.05;100.00;102680.63;5073950;28;20120;-56
2022/01/20 06:25:53;;;;;;;9.93;2.30;;;;;;;4.07;100.00;102703.25;5075672;28;20037;-54
2022/01/20 06:28:19;;;;;;;12.02;2.78;;;;;;;4.05;100.00;102706.66;5085639;28;20025;-55
2022/01/20 06:30:44;;;;;;;14.07;2.25;;;;;;;3.56;100.00;102632.53;5079305;28;20047;-56
2022/01/20 06:33:09;;;;;;;14.52;2.72;;;;;;;3.95;100.00;102713.38;5095216;28;20024;-56
2022/01/20 06:35:35;;;;;;;7.70;2.08;;;;;;;3.94;100.00;102717.69;5095213;28;20032;-53
2022/01/20 06:38:01;;;;;;;7.57;1.52;;;;;;;3.42;100.00;102633.91;5094984;28;20032;-55
2022/01/20 06:40:26;;;;;;;7.22;1.80;;;;;;;3.37;100.00;102635.53;5094934;28;20024;-55
2022/01/20 06:42:52;;;;;;;10.75;2.38;;;;;;;3.53;100.00;102658.53;5095026;28;20116;-55
2022/01/20 06:45:19;;;;;;;13.23;2.28;;;;;;;3.73;100.00;102693.75;5075671;28;20235;-54
2022/01/20 06:47:44;;;;;;;11.25;2.08;;;;;;;3.95;100.00;102755.06;5083940;28;20074;-57
2022/01/20 06:50:12;;;;;;;7.55;2.08;;;;;;;3.84;100.00;102748.72;5074632;28;20028;-60
2022/01/20 06:52:38;;;;;;;12.68;2.70;;;;;;;3.64;100.00;102740.41;5092422;28;20119;-53
2022/01/20 06:55:07;;;;;;;14.82;3.08;;;;;;;3.68;100.00;102741.31;5060114;28;20028;-55
2022/01/20 06:57:33;;;;;;;12.98;2.28;;;;;;;3.19;100.00;102679.28;5076827;28;20467;-55
2022/01/20 06:59:59;;;;;;;15.95;2.92;;;;;;;3.05;100.00;102659.81;5076619;28;20486;-57
2022/01/20 07:02:24;;;;;;;14.07;2.55;;;;;;;3.39;100.00;102738.84;5076429;28;20032;-54
2022/01/20 07:04:50;;;;;;;18.27;3.00;;;;;;;3.55;100.00;102773.09;5076071;28;20086;-56
2022/01/20 07:07:16;;;;;;;19.65;2.70;;;;;;;3.64;100.00;102774.25;5056525;28;20032;-54
2022/01/20 07:09:41;;;;;;;14.18;2.78;;;;;;;3.26;100.00;102691.63;5077258;28;20035;-56
2022/01/20 07:12:08;;;;;;;16.85;2.65;;;;;;;3.88;100.00;102780.06;5094624;28;20044;-56
2022/01/20 07:14:33;;;;;;;8.55;2.30;;;;;;;3.71;100.00;102752.72;5094403;28;20028;-53
2022/01/20 07:16:58;;;;;;;12.02;2.42;;;;;;;3.95;100.00;102784.59;5094609;28;20046;-54
2022/01/20 07:19:24;;;;;;;10.88;2.00;;;;;;;3.85;100.00;102774.78;5076227;28;20028;-58
2022/01/20 07:21:50;;;;;;;13.98;2.30;;;;;;;3.98;100.00;102789.00;5076259;28;20100;-53
2022/01/20 07:24:15;;;;;;;13.45;2.35;;;;;;;3.47;100.00;102705.22;5094446;28;20035;-52
2022/01/20 07:26:40;;;;;;;13.55;2.63;;;;;;;3.38;100.00;102687.66;5094269;28;20085;-59
2022/01/20 07:29:06;;;;;;;17.08;2.90;;;;;;;3.54;100.00;102714.06;5094166;28;20441;-56
2022/01/20 07:31:31;;;;;;;9.93;1.92;;;;;;;3.90;100.00;102778.41;5094278;28;20036;-56
2022/01/20 07:33:57;;;;;;;13.98;2.72;;;;;;;3.90;100.00;102788.84;5075998;28;20162;-59
2022/01/20 07:36:22;;;;;;;10.52;2.30;;;;;;;3.44;100.00;102691.25;5075919;28;20035;-52
2022/01/20 07:38:48;;;;;;;15.13;3.33;;;;;;;3.96;100.00;102790.72;5094308;28;20036;-51
2022/01/20 07:41:13;;;;;;;15.52;2.60;;;;;;;3.65;100.00;102741.28;5093805;28;20481;-53
2022/01/20 07:43:39;;;;;;;10.82;2.47;;;;;;;3.97;100.00;102801.16;5093677;28;20032;-52
2022/01/20 07:46:05;;;;;;;21.63;3.72;;;;;;;3.57;100.00;102741.06;5093514;28;20032;-50
2022/01/20 07:48:30;;;;;;;15.35;2.97;;;;;;;3.68;100.00;102799.50;5074554;28;20044;-51
2022/01/20 07:50:56;;;;;;;15.60;3.92;;;;;;;3.10;100.00;102703.34;5093972;28;20123;-49
2022/01/20 07:53:21;;;;;;;15.70;3.55;;;;;;;3.48;100.00;102805.91;5075625;28;20081;-51
2022/01/20 07:55:46;;;;;;;19.52;3.92;;;;;;;3.39;100.00;102811.72;5093730;28;20036;-49
2022/01/20 07:58:12;;;;;;;20.05;3.40;;;;;;;3.30;100.00;102810.59;5093875;28;20115;-52
2022/01/20 08:00:37;;;;;;;18.92;3.55;;;;;;;2.99;100.00;102763.72;5093561;28;20085;-48
2022/01/20 08:03:02;;;;;;;19.42;3.03;;;;;;;2.89;100.00;102751.28;5093547;28;20060;-51
2022/01/20 08:05:28;;;;;;;20.38;3.60;;;;;;;2.72;100.00;102735.16;5075272;28;20034;-49
2022/01/20 08:07:53;;;;;;;22.02;3.83;;;;;;;3.14;100.00;102806.69;5075140;28;20372;-50
2022/01/20 08:10:19;;;;;;;21.65;3.53;;;;;;;3.14;100.00;102797.97;5093518;28;20047;-49
2022/01/20 08:12:44;;;;;;;21.23;3.95;;;;;;;3.21;100.00;102824.22;5075381;28;20043;-52
2022/01/20 08:15:12;;;;;;;19.45;4.13;;;;;;;3.23;100.00;102806.06;5092715;28;20035;-50
2022/01/20 08:17:38;;;;;;;17.17;2.95;;;;;;;3.04;100.00;102751.72;5075002;28;20043;-49
2022/01/20 08:20:05;;;;;;;17.27;2.70;;;;;;;3.23;100.00;102767.03;5091649;28;20145;-49
2022/01/20 08:22:34;;;;;;;15.45;3.65;;;;;;;3.64;100.00;102828.94;5057501;28;20039;-52
2022/01/20 08:25:00;;;;;;;10.98;2.55;;;;;;;3.25;100.00;102753.22;5077242;28;20028;-49
2022/01/20 08:27:25;;;;;;;14.57;3.00;;;;;;;3.69;100.00;102822.13;5093260;28;20124;-50
2022/01/20 08:29:51;;;;;;;12.32;2.78;;;;;;;3.83;100.00;102831.19;5074932;28;20483;-52
2022/01/20 08:32:16;;;;;;;17.90;2.95;;;;;;;3.57;100.00;102769.69;5093131;28;20125;-53
2022/01/20 08:34:42;;;;;;;23.50;3.45;;;;;;;3.51;100.00;102756.50;5092796;28;20453;-49
2022/01/20 08:37:07;;;;;;;16.88;3.03;;;;;;;4.03;100.00;102843.88;5088798;28;20032;-51
2022/01/20 08:42:03;;;;;;;14.80;3.47;;;;;;;3.67;100.00;102748.28;5072620;28;20151;-53
2022/01/20 08:44:29;;;;;;;16.05;3.45;;;;;;;3.67;100.00;102747.41;5054655;28;20459;-51
2022/01/20 08:46:57;;;;;;;16.40;3.10;;;;;;;4.09;100.00;102836.19;5072600;28;20052;-50
2022/01/20 08:49:23;;;;;;;21.27;3.50;;;;;;;4.17;100.00;102876.38;5054907;28;20028;-50
2022/01/20 08:51:49;;;;;;;12.57;2.75;;;;;;;3.82;100.00;102807.72;5072524;28;20040;-49
2022/01/20 08:54:14;;;;;;;12.48;2.75;;;;;;;4.16;100.00;102861.56;5054694;28;20028;-50
2022/01/20 08:56:41;;;;;;;23.00;3.67;;;;;;;4.21;100.00;102883.41;5072344;28;20102;-50
2022/01/20 08:59:07;;;;;;;18.00;3.33;;;;;;;4.12;100.00;102867.53;5054551;28;20028;-52
2022/01/20 09:01:33;;;;;;;12.48;3.00;;;;;;;3.83;100.00;102812.06;5072412;28;20085;-51
2022/01/20 09:03:59;;;;;;;17.48;3.55;;;;;;;4.21;100.00;102894.72;5054421;28;20039;-49
2022/01/20 09:06:24;;;;;;;19.20;3.22;;;;;;;4.01;100.00;102876.78;5054319;28;20028;-50
2022/01/20 09:08:50;;;;;;;19.08;3.65;;;;;;;4.17;100.00;102910.25;5072551;28;20104;-51
2022/01/20 09:11:20;;;;;;;16.85;3.33;;;;;;;4.18;100.00;102905.06;5072222;28;20506;-49
2022/01/20 09:16:30;;;;;;;13.80;3.00;;;;;;;4.17;100.00;102885.09;5072359;28;20537;-52
2022/01/20 09:18:56;;;;;;;16.05;3.38;;;;;;;4.47;100.00;102917.13;5072206;28;20037;-54
2022/01/20 09:21:23;;;;;;;15.32;3.35;;;;;;;4.16;100.00;102844.22;5072312;28;20024;-53
2022/01/20 09:23:48;;;;;;;17.67;3.47;;;;;;;4.13;100.00;102845.84;5054608;28;20047;-50
2022/01/20 09:26:14;;;;;;;14.73;2.78;;;;;;;4.64;100.00;102925.38;5072260;28;20116;-53
2022/01/20 09:28:40;;;;;;;21.33;3.10;;;;;;;4.65;100.00;102942.81;5057878;28;20047;-49
2022/01/20 09:31:06;;;;;;;14.95;3.70;;;;;;;4.62;100.00;102932.28;5076212;28;20044;-51
2022/01/20 09:33:32;;;;;;;18.23;3.65;;;;;;;4.12;100.00;102858.00;5076080;28;20399;-52
2022/01/20 09:35:58;;;;;;;17.02;3.50;;;;;;;4.42;100.00;102917.88;5058365;28;20028;-48
2022/01/20 09:38:25;;;;;;;20.75;3.90;;;;;;;4.45;100.00;102936.22;5058113;28;20491;-52
2022/01/20 09:40:50;;;;;;;21.25;4.90;;;;;;;4.46;100.00;102941.47;5075963;28;20025;-52
2022/01/20 09:43:16;;;;;;;13.68;3.72;;;;;;;4.61;100.00;102935.78;5057985;28;20039;-48
2022/01/20 09:45:44;;;;;;;10.88;2.42;;;;;;;4.71;100.00;102931.63;5075795;28;20036;-50
2022/01/20 09:48:11;;;;;;;17.95;3.47;;;;;;;4.23;100.00;102847.88;5058164;28;20391;-52
2022/01/20 09:50:36;;;;;;;15.27;3.13;;;;;;;4.75;100.00;102954.38;5075819;28;20438;-51
2022/01/20 09:53:03;;;;;;;15.60;3.33;;;;;;;4.66;100.00;102948.91;5057942;28;20020;-51
2022/01/20 09:55:30;;;;;;;16.25;3.20;;;;;;;4.31;100.00;102882.81;5075718;28;20043;-49
2022/01/20 09:57:55;;;;;;;16.25;3.33;;;;;;;4.70;100.00;102945.56;5075067;28;20041;-50
2022/01/20 10:00:21;;;;;;;11.25;2.90;;;;;;;4.60;100.00;102941.81;5076050;28;20173;-51
2022/01/20 10:02:56;;;;;;;15.77;3.67;;;;;;;4.09;100.00;102870.94;5095992;28;20109;-51
2022/01/20 10:05:40;;;;;;;19.27;4.45;;;;;;;4.59;100.00;102958.28;5096098;28;20071;-51
2022/01/20 10:08:11;;;;;;;13.82;3.03;;;;;;;3.95;100.00;102856.69;5095711;28;20032;-50
2022/01/20 10:10:44;;;;;;;15.20;3.25;;;;;;;4.49;100.00;102967.59;5080086;28;20349;-50
2022/01/20 10:13:11;;;;;;;13.95;2.65;;;;;;;4.30;100.00;102969.69;5075252;28;20479;-51
2022/01/20 10:15:37;;;;;;;14.25;2.42;;;;;;;3.75;100.00;102904.75;5074324;28;20031;-53
2022/01/20 10:18:04;;;;;;;12.85;2.33;;;;;;;4.21;100.00;102998.09;5075363;28;20032;-50
2022/01/20 10:20:30;;;;;;;10.02;2.60;;;;;;;4.32;100.00;102999.31;5057252;28;20070;-55
2022/01/20 10:22:56;;;;;;;14.80;2.58;;;;;;;4.46;100.00;102995.34;5074951;28;20036;-46
2022/01/20 10:25:24;;;;;;;10.85;2.80;;;;;;;4.38;100.00;102981.19;5074783;28;20064;-55
2022/01/20 10:27:55;;;;;;;12.95;2.33;;;;;;;4.03;100.00;102932.47;5074843;28;20395;-53
2022/01/20 10:30:24;;;;;;;11.40;2.78;;;;;;;4.32;100.00;102979.31;5073941;28;20028;-47
2022/01/20 10:32:51;;;;;;;10.27;2.25;;;;;;;4.39;100.00;102988.19;5075053;28;20031;-52
2022/01/20 10:35:23;;;;;;;13.68;2.30;;;;;;;4.57;100.00;103001.72;5056176;28;20452;-54
2022/01/20 10:38:10;;;;;;;14.55;2.63;;;;;;;4.61;100.00;103016.63;5056020;28;20098;-52
2022/01/20 10:40:46;;;;;;;12.82;2.63;;;;;;;4.69;100.00;103006.38;5074812;28;20020;-53
2022/01/20 10:43:19;;;;;;;14.13;2.35;;;;;;;4.85;100.00;103021.56;5074460;28;20032;-53
2022/01/20 10:45:45;;;;;;;12.88;2.75;;;;;;;4.92;100.00;103015.69;5056537;28;20036;-50
2022/01/20 10:48:17;;;;;;;10.70;3.28;;;;;;;5.08;100.00;103038.69;5056574;28;20391;-55
2022/01/20 10:50:43;;;;;;;12.95;2.78;;;;;;;5.19;100.00;103016.38;5056158;28;20024;-50
2022/01/20 10:53:19;;;;;;;14.35;3.20;;;;;;;5.24;100.00;103008.63;5074205;28;20036;-59
2022/01/20 10:55:44;;;;;;;15.10;3.05;;;;;;;5.44;100.00;103023.03;5074254;28;20033;-54
2022/01/20 10:58:16;;;;;;;12.85;2.83;;;;;;;5.36;100.00;103035.03;5056268;28;20588;-52
2022/01/20 11:00:44;;;;;;;12.60;2.42;;;;;;;5.41;100.00;103031.69;5074459;28;20033;-53
2022/01/20 11:03:10;;;;;;;15.68;3.70;;;;;;;5.28;100.00;103027.03;5056721;28;20033;-51
2022/01/20 11:05:35;;;;;;;15.85;2.90;;;;;;;5.15;100.00;103040.63;5056630;28;20460;-54
2022/01/20 11:08:01;;;;;;;11.60;2.47;;;;;;;5.18;100.00;103019.81;5072912;28;20056;-55
2022/01/20 11:10:26;;;;;;;15.00;3.38;;;;;;;4.83;100.00;102952.81;5072928;28;20239;-49
2022/01/20 11:12:52;;;;;;;16.50;2.85;;;;;;;5.32;100.00;103028.84;5074092;28;20041;-50
2022/01/20 11:15:19;;;;;;;12.45;2.60;;;;;;;5.38;100.00;103038.56;5073957;28;20486;-49
2022/01/20 11:17:50;;;;;;;12.02;2.55;;;;;;;4.69;100.00;102949.88;5073978;28;20051;-48
2022/01/20 11:20:22;;;;;;;11.35;2.65;;;;;;;4.82;100.00;103037.16;5056557;28;20047;-55
2022/01/20 11:23:00;;;;;;;;;;;;;;;4.54;100.00;103022.50;5074430;28;20044;-51
2022/01/20 11:25:28;;;;;;;12.02;2.10;;;;;;;4.50;100.00;103016.31;5056071;28;19912;-50
2022/01/20 11:28:12;;;;;;;17.65;2.75;;;;;;;4.55;100.00;102987.78;5073940;28;20473;-51
2022/01/20 11:30:42;;;;;;;12.25;2.28;;;;;;;4.19;100.00;102919.00;5073733;28;20078;-56
2022/01/20 11:33:12;;;;;;;10.73;2.63;;;;;;;4.59;100.00;103000.03;5073770;28;20475;-48
2022/01/20 11:35:40;;;;;;;16.57;2.93;;;;;;;4.63;100.00;102986.25;5073860;28;20079;-54
2022/01/20 11:38:07;;;;;;;16.65;2.83;;;;;;;4.30;100.00;102909.72;5073533;28;20492;-55
2022/01/20 11:40:32;;;;;;;9.80;2.47;;;;;;;4.27;100.00;102883.56;5073862;28;20033;-52
2022/01/20 11:43:04;;;;;;;14.30;2.58;;;;;;;4.77;100.00;102982.25;5073712;28;20115;-53
2022/01/20 11:45:32;;;;;;;14.88;2.58;;;;;;;4.80;100.00;102984.94;5073783;28;20017;-47
2022/01/20 11:48:10;;;;;;;14.05;3.08;;;;;;;4.41;100.00;102887.41;5073612;28;20387;-54
2022/01/20 11:50:35;;;;;;;16.13;2.97;;;;;;;5.22;100.00;102968.56;5054753;28;20028;-50
2022/01/20 11:53:18;;;;;;;13.52;2.65;;;;;;;5.39;100.00;102978.53;5055274;28;20033;-53
2022/01/20 11:55:45;;;;;;;16.42;2.55;;;;;;;5.39;100.00;102977.66;5073201;28;20382;-53
2022/01/20 11:58:13;;;;;;;11.70;2.85;;;;;;;5.40;100.00;102963.78;5073297;28;20139;-54
2022/01/20 12:00:38;;;;;;;15.35;3.42;;;;;;;5.51;100.00;102977.94;5072875;28;20035;-54
2022/01/20 12:03:14;;;;;;;13.38;3.17;;;;;;;5.42;100.00;102957.72;5055199;28;20033;-53
2022/01/20 12:05:40;;;;;;;9.75;2.08;;;;;;;5.47;100.00;102976.09;5055658;28;20028;-55
2022/01/20 12:08:18;;;;;;;13.40;2.33;;;;;;;5.48;100.00;102985.72;5073277;28;20036;-49
2022/01/20 12:11:09;;;;;;;11.38;2.33;;;;;;;5.44;100.00;102979.53;5077629;28;20032;-53
2022/01/20 12:13:51;;;;;;;18.10;2.97;;;;;;;5.26;100.00;102965.16;5072971;28;20559;-51
2022/01/20 12:16:22;;;;;;;13.98;2.17;;;;;;;5.10;100.00;102969.16;5081356;28;20069;-55
2022/01/20 12:19:08;;;;;;;5.22;1.50;;;;;;;4.94;100.00;102986.16;5074203;28;20467;-54